createdAt,value
2018-11-05T00:00:37.210Z,11.10
2018-11-05T00:03:05.430Z,11.10
2018-11-05T00:05:32.879Z,11.00
2018-11-05T00:08:00.391Z,11.10
2018-11-05T00:10:27.838Z,11.00
2018-11-05T00:12:55.312Z,11.00
2018-11-05T00:15:22.794Z,11.00
2018-11-05T00:17:50.255Z,11.00
2018-11-05T00:20:17.712Z,11.10
2018-11-05T00:22:45.163Z,11.10
2018-11-05T00:25:13.372Z,11.10
2018-11-05T00:27:41.248Z,11.00
2018-11-05T00:30:10.151Z,11.10
2018-11-05T00:32:37.600Z,11.10
2018-11-05T00:35:05.420Z,11.10
2018-11-05T00:37:32.947Z,11.10
2018-11-05T00:40:00.412Z,11.10
2018-11-05T00:42:27.947Z,11.20
2018-11-05T00:44:55.395Z,11.10
2018-11-05T00:47:22.824Z,11.00
2018-11-05T00:49:50.256Z,11.20
2018-11-05T00:52:17.780Z,11.10
2018-11-05T00:54:45.201Z,11.00
2018-11-05T00:57:12.631Z,11.10
2018-11-05T00:59:40.127Z,11.10
2018-11-05T01:02:08.635Z,11.10
2018-11-05T01:04:36.063Z,11.10
2018-11-05T01:07:03.748Z,11.10
2018-11-05T01:09:31.192Z,11.10
2018-11-05T01:11:58.651Z,11.10
2018-11-05T01:14:26.099Z,11.10
2018-11-05T01:16:53.584Z,11.10
2018-11-05T01:19:21.075Z,11.10
2018-11-05T01:21:48.524Z,11.10
2018-11-05T01:24:16.195Z,11.10
2018-11-05T01:26:43.764Z,11.10
2018-11-05T01:29:11.239Z,11.00
2018-11-05T01:31:39.051Z,11.10
2018-11-05T01:34:06.535Z,11.10
2018-11-05T01:36:34.003Z,11.10
2018-11-05T01:39:01.455Z,11.10
2018-11-05T01:41:28.951Z,11.00
2018-11-05T01:43:56.432Z,11.10
2018-11-05T01:46:23.897Z,11.10
2018-11-05T01:48:51.356Z,11.00
2018-11-05T01:51:18.810Z,11.10
2018-11-05T01:53:46.255Z,11.10
2018-11-05T01:56:13.752Z,11.10
2018-11-05T01:58:41.285Z,11.10
2018-11-05T02:01:08.728Z,11.00
2018-11-05T02:03:36.199Z,11.00
2018-11-05T02:06:03.763Z,11.10
2018-11-05T02:08:31.211Z,11.10
2018-11-05T02:10:58.662Z,11.10
2018-11-05T02:13:26.163Z,11.10
2018-11-05T02:15:53.648Z,11.10
2018-11-05T02:18:21.022Z,11.00
2018-11-05T02:20:48.471Z,11.10
2018-11-05T02:23:15.939Z,11.10
2018-11-05T02:25:43.352Z,11.00
2018-11-05T02:28:10.776Z,11.00
2018-11-05T02:30:38.217Z,11.10
2018-11-05T02:33:05.698Z,11.10
2018-11-05T02:35:34.623Z,11.10
2018-11-05T02:38:02.968Z,11.10
2018-11-05T02:40:30.890Z,11.10
2018-11-05T02:42:58.801Z,11.00
2018-11-05T02:45:26.748Z,11.10
2018-11-05T02:47:54.704Z,11.00
2018-11-05T02:50:22.628Z,11.10
2018-11-05T02:52:50.048Z,10.90
2018-11-05T02:55:17.562Z,11.10
2018-11-05T02:57:45.015Z,11.00
2018-11-05T03:00:14.344Z,11.10
2018-11-05T03:02:41.914Z,11.00
2018-11-05T03:05:11.747Z,11.00
2018-11-05T03:07:39.256Z,11.00
2018-11-05T03:10:07.717Z,11.10
2018-11-05T03:12:35.211Z,11.10
2018-11-05T03:15:02.671Z,11.10
2018-11-05T03:17:30.100Z,11.10
2018-11-05T03:19:57.604Z,11.10
2018-11-05T03:22:25.104Z,11.10
2018-11-05T03:24:52.563Z,11.00
2018-11-05T03:27:20.164Z,11.00
2018-11-05T03:29:47.608Z,11.00
2018-11-05T03:32:15.045Z,11.10
2018-11-05T03:34:42.644Z,11.10
2018-11-05T03:37:10.112Z,11.10
2018-11-05T03:39:37.579Z,11.10
2018-11-05T03:42:05.483Z,11.10
2018-11-05T03:44:32.932Z,11.10
2018-11-05T03:47:00.388Z,11.10
2018-11-05T03:49:27.831Z,11.10
2018-11-05T03:51:55.309Z,11.10
2018-11-05T03:54:22.815Z,11.10
2018-11-05T03:56:50.349Z,11.10
2018-11-05T03:59:17.697Z,11.10
2018-11-05T04:01:45.118Z,11.10
2018-11-05T04:04:12.580Z,11.10
2018-11-05T04:06:40.068Z,11.10
2018-11-05T04:09:08.980Z,11.10
2018-11-05T04:11:36.440Z,11.10
2018-11-05T04:14:03.948Z,11.20
2018-11-05T04:16:31.449Z,11.10
2018-11-05T04:18:58.919Z,11.10
2018-11-05T04:21:30.849Z,11.20
2018-11-05T04:23:58.298Z,11.10
2018-11-05T04:26:25.751Z,11.20
2018-11-05T04:28:53.207Z,11.20
2018-11-05T04:31:20.646Z,11.20
2018-11-05T04:33:48.115Z,11.20
2018-11-05T04:36:15.565Z,11.10
2018-11-05T04:38:43.000Z,11.10
2018-11-05T04:41:10.511Z,11.10
2018-11-05T04:43:37.962Z,11.20
2018-11-05T04:46:05.531Z,11.20
2018-11-05T04:48:33.632Z,11.10
2018-11-05T04:51:01.063Z,11.10
2018-11-05T04:53:28.551Z,11.10
2018-11-05T04:55:55.984Z,11.10
2018-11-05T04:58:23.464Z,11.20
2018-11-05T05:00:50.921Z,11.10
2018-11-05T05:03:18.451Z,11.20
2018-11-05T05:05:45.908Z,11.20
2018-11-05T05:08:13.437Z,11.20
2018-11-05T05:10:40.887Z,11.20
2018-11-05T05:13:08.385Z,11.20
2018-11-05T05:15:35.838Z,11.20
2018-11-05T05:18:03.312Z,11.20
2018-11-05T05:20:30.772Z,11.10
2018-11-05T05:22:58.385Z,11.20
2018-11-05T05:25:25.767Z,11.10
2018-11-05T05:30:20.675Z,11.20
2018-11-05T05:32:48.764Z,11.20
2018-11-05T05:35:17.104Z,11.20
2018-11-05T05:37:44.583Z,11.20
2018-11-05T05:40:12.071Z,11.20
2018-11-05T05:42:40.127Z,11.20
2018-11-05T05:45:08.647Z,11.20
2018-11-05T05:47:36.213Z,11.20
2018-11-05T05:50:05.867Z,11.20
2018-11-05T05:52:33.300Z,11.20
2018-11-05T05:55:00.728Z,11.20
2018-11-05T05:57:28.595Z,11.20
2018-11-05T05:59:56.681Z,11.20
2018-11-05T06:02:24.063Z,11.20
2018-11-05T06:04:51.546Z,11.10
2018-11-05T06:07:18.979Z,11.20
2018-11-05T06:09:46.416Z,11.30
2018-11-05T06:12:13.882Z,11.20
2018-11-05T06:14:41.315Z,11.20
2018-11-05T06:17:08.801Z,11.20
2018-11-05T06:19:36.261Z,11.20
2018-11-05T06:22:04.187Z,11.20
2018-11-05T06:24:31.615Z,11.20
2018-11-05T06:26:59.069Z,11.20
2018-11-05T06:29:26.559Z,11.30
2018-11-05T06:31:54.035Z,11.20
2018-11-05T06:34:21.503Z,11.20
2018-11-05T06:36:48.956Z,11.20
2018-11-05T06:39:16.358Z,11.20
2018-11-05T06:41:44.150Z,11.30
2018-11-05T06:44:11.652Z,11.30
2018-11-05T06:46:38.944Z,11.30
2018-11-05T06:49:06.507Z,11.30
2018-11-05T06:51:33.942Z,11.30
2018-11-05T06:54:02.211Z,11.20
2018-11-05T06:56:29.669Z,11.30
2018-11-05T06:58:57.095Z,11.30
2018-11-05T07:01:24.600Z,11.30
2018-11-05T07:03:52.027Z,11.30
2018-11-05T07:06:19.547Z,11.30
2018-11-05T07:08:46.967Z,11.30
2018-11-05T07:11:14.595Z,11.30
2018-11-05T07:13:42.215Z,11.30
2018-11-05T07:16:09.651Z,11.30
2018-11-05T07:18:37.899Z,11.30
2018-11-05T07:21:05.658Z,11.30
2018-11-05T07:23:33.697Z,11.20
2018-11-05T07:26:02.204Z,11.40
2018-11-05T07:28:32.161Z,11.30
2018-11-05T07:30:59.645Z,11.30
2018-11-05T07:33:27.229Z,11.50
2018-11-05T07:35:54.789Z,11.40
2018-11-05T07:38:22.215Z,11.50
2018-11-05T07:40:49.692Z,11.50
2018-11-05T07:43:17.199Z,11.50
2018-11-05T07:45:44.652Z,11.60
2018-11-05T07:48:12.180Z,11.60
2018-11-05T07:50:39.681Z,11.60
2018-11-05T07:53:07.191Z,11.70
2018-11-05T07:55:34.747Z,11.70
2018-11-05T07:58:02.220Z,11.70
2018-11-05T08:00:35.368Z,11.70
2018-11-05T08:03:03.201Z,11.80
2018-11-05T08:05:30.507Z,11.80
2018-11-05T08:07:58.148Z,11.90
2018-11-05T08:12:53.055Z,11.80
2018-11-05T08:15:22.005Z,11.80
2018-11-05T08:17:50.476Z,11.90
2018-11-05T08:20:17.909Z,11.90
2018-11-05T08:22:45.403Z,12.00
2018-11-05T08:25:13.786Z,12.00
2018-11-05T08:27:41.309Z,12.00
2018-11-05T08:30:15.200Z,11.90
2018-11-05T08:32:42.775Z,12.00
2018-11-05T08:35:11.149Z,12.00
2018-11-05T08:37:38.799Z,12.10
2018-11-05T08:40:11.224Z,12.20
2018-11-05T08:42:39.107Z,12.10
2018-11-05T08:45:06.865Z,12.10
2018-11-05T08:47:34.320Z,12.10
2018-11-05T08:50:01.853Z,12.30
2018-11-05T08:52:29.296Z,12.30
2018-11-05T08:54:56.748Z,12.40
2018-11-05T08:57:24.301Z,12.40
2018-11-05T08:59:51.708Z,12.50
2018-11-05T09:02:19.164Z,12.60
2018-11-05T09:04:46.825Z,12.60
2018-11-05T09:07:14.196Z,12.50
2018-11-05T09:09:42.087Z,12.70
2018-11-05T09:12:09.560Z,12.70
2018-11-05T09:14:36.959Z,12.70
2018-11-05T09:17:04.895Z,12.70
2018-11-05T09:19:32.516Z,12.60
2018-11-05T09:22:00.507Z,12.60
2018-11-05T09:24:28.004Z,12.50
2018-11-05T09:26:55.828Z,12.40
2018-11-05T09:29:24.693Z,12.40
2018-11-05T09:31:52.112Z,12.40
2018-11-05T09:34:19.539Z,12.50
2018-11-05T09:36:46.979Z,12.50
2018-11-05T09:39:14.447Z,12.60
2018-11-05T09:41:41.896Z,12.70
2018-11-05T09:44:09.367Z,12.80
2018-11-05T09:46:36.919Z,12.80
2018-11-05T09:49:05.113Z,12.90
2018-11-05T09:51:32.565Z,13.10
2018-11-05T09:54:00.024Z,13.10
2018-11-05T09:56:27.540Z,13.00
2018-11-05T09:58:54.982Z,13.00
2018-11-05T10:01:22.507Z,13.10
2018-11-05T10:03:56.042Z,13.00
2018-11-05T10:06:24.070Z,13.00
2018-11-05T10:08:51.534Z,12.90
2018-11-05T10:11:19.511Z,13.00
2018-11-05T10:13:46.967Z,13.10
2018-11-05T10:16:14.455Z,13.10
2018-11-05T10:18:42.804Z,13.10
2018-11-05T10:21:12.466Z,13.20
2018-11-05T10:23:39.925Z,13.20
2018-11-05T10:26:07.546Z,13.40
2018-11-05T10:28:34.947Z,13.40
2018-11-05T10:31:02.549Z,14.30
2018-11-05T10:33:30.044Z,15.10
2018-11-05T10:35:58.003Z,15.90
2018-11-05T10:38:25.863Z,16.10
2018-11-05T10:40:53.348Z,16.50
2018-11-05T10:43:20.932Z,17.10
2018-11-05T10:45:48.532Z,17.20
2018-11-05T10:48:16.016Z,16.70
2018-11-05T10:50:43.540Z,16.50
2018-11-05T10:53:11.048Z,16.40
2018-11-05T10:55:38.538Z,16.10
2018-11-05T10:58:06.298Z,16.40
2018-11-05T11:00:39.537Z,16.70
2018-11-05T11:03:12.684Z,16.50
2018-11-05T11:05:40.207Z,16.30
2018-11-05T11:08:07.701Z,16.80
2018-11-05T11:10:35.247Z,17.20
2018-11-05T11:13:02.916Z,17.50
2018-11-05T11:15:30.482Z,17.80
2018-11-05T11:17:58.380Z,18.00
2018-11-05T11:20:26.112Z,18.00
2018-11-05T11:22:53.633Z,17.70
2018-11-05T11:25:21.987Z,17.30
2018-11-05T11:27:51.591Z,17.20
2018-11-05T11:30:19.130Z,17.10
2018-11-05T11:32:47.197Z,16.80
2018-11-05T11:35:15.592Z,16.60
2018-11-05T11:37:43.134Z,16.20
2018-11-05T11:40:14.662Z,16.10
2018-11-05T11:42:43.100Z,15.90
2018-11-05T11:45:11.456Z,15.50
2018-11-05T11:47:39.114Z,15.50
2018-11-05T11:50:08.634Z,15.40
2018-11-05T11:52:36.253Z,15.30
2018-11-05T11:55:04.717Z,15.40
2018-11-05T11:57:32.314Z,15.40
2018-11-05T11:59:59.818Z,15.40
2018-11-05T12:02:27.498Z,15.40
2018-11-05T12:04:55.053Z,15.40
2018-11-05T12:07:22.564Z,15.40
2018-11-05T12:09:50.152Z,15.30
2018-11-05T12:12:17.651Z,15.40
2018-11-05T12:14:45.369Z,15.40
2018-11-05T12:17:12.699Z,15.40
2018-11-05T12:19:40.221Z,15.40
2018-11-05T12:22:07.711Z,15.40
2018-11-05T12:24:35.363Z,15.30
2018-11-05T12:27:02.755Z,15.40
2018-11-05T12:29:30.292Z,15.50
2018-11-05T12:31:57.737Z,15.60
2018-11-05T12:34:25.281Z,15.60
2018-11-05T12:36:52.796Z,15.40
2018-11-05T12:39:20.351Z,15.30
2018-11-05T12:41:48.064Z,15.20
2018-11-05T12:44:15.601Z,15.00
2018-11-05T12:46:43.159Z,14.70
2018-11-05T12:49:11.006Z,14.80
2018-11-05T12:51:39.029Z,14.60
2018-11-05T12:54:06.516Z,14.70
2018-11-05T12:56:34.030Z,14.70
2018-11-05T12:59:01.594Z,14.60
2018-11-05T13:01:29.741Z,14.60
2018-11-05T13:03:57.269Z,14.60
2018-11-05T13:06:24.695Z,14.70
2018-11-05T13:08:52.168Z,15.00
2018-11-05T13:11:19.747Z,15.30
2018-11-05T13:13:47.281Z,15.70
2018-11-05T13:16:14.737Z,15.80
2018-11-05T13:18:42.230Z,16.10
2018-11-05T13:21:10.878Z,16.40
2018-11-05T13:23:43.345Z,16.50
2018-11-05T13:26:11.228Z,16.60
2018-11-05T13:28:38.932Z,16.60
2018-11-05T13:31:06.542Z,16.50
2018-11-05T13:33:34.219Z,16.40
2018-11-05T13:36:01.733Z,16.20
2018-11-05T13:38:29.280Z,16.20
2018-11-05T13:40:56.774Z,16.00
2018-11-05T13:43:24.227Z,15.90
2018-11-05T13:45:51.941Z,15.70
2018-11-05T13:48:19.581Z,15.50
2018-11-05T13:50:46.770Z,15.20
2018-11-05T13:53:14.264Z,15.10
2018-11-05T13:55:41.815Z,15.00
2018-11-05T13:58:09.698Z,14.90
2018-11-05T14:00:37.259Z,14.80
2018-11-05T14:03:05.335Z,14.80
2018-11-05T14:05:32.804Z,14.60
2018-11-05T14:08:00.365Z,14.50
2018-11-05T14:10:27.890Z,14.40
2018-11-05T14:12:55.492Z,14.40
2018-11-05T14:15:22.880Z,14.20
2018-11-05T14:17:50.372Z,14.30
2018-11-05T14:20:18.981Z,14.30
2018-11-05T14:22:46.550Z,14.20
2018-11-05T14:25:15.435Z,14.30
2018-11-05T14:27:44.321Z,14.10
2018-11-05T14:30:12.599Z,14.00
2018-11-05T14:32:41.221Z,14.10
2018-11-05T14:35:08.732Z,14.00
2018-11-05T14:37:36.307Z,14.00
2018-11-05T14:40:04.658Z,14.00
2018-11-05T14:42:32.370Z,14.00
2018-11-05T14:44:59.867Z,14.00
2018-11-05T14:47:27.424Z,13.90
2018-11-05T14:49:54.957Z,14.00
2018-11-05T14:52:22.480Z,14.00
2018-11-05T14:54:49.966Z,14.00
2018-11-05T14:57:17.490Z,13.80
2018-11-05T14:59:44.924Z,13.80
2018-11-05T15:02:18.070Z,13.80
2018-11-05T15:04:45.683Z,13.90
2018-11-05T15:07:13.172Z,13.90
2018-11-05T15:09:40.664Z,13.80
2018-11-05T15:12:08.229Z,13.70
2018-11-05T15:14:35.959Z,13.70
2018-11-05T15:17:03.528Z,13.60
2018-11-05T15:19:31.283Z,13.60
2018-11-05T15:21:58.459Z,13.60
2018-11-05T15:24:25.926Z,13.70
2018-11-05T15:26:53.457Z,13.70
2018-11-05T15:29:20.845Z,13.60
2018-11-05T15:31:48.376Z,13.50
2018-11-05T15:34:15.866Z,13.60
2018-11-05T15:36:43.429Z,13.60
2018-11-05T15:39:10.955Z,13.50
2018-11-05T15:41:38.684Z,13.50
2018-11-05T15:44:06.767Z,13.30
2018-11-05T15:46:34.263Z,13.40
2018-11-05T15:49:01.898Z,13.30
2018-11-05T15:51:29.549Z,13.30
2018-11-05T15:53:57.613Z,13.20
2018-11-05T15:56:25.111Z,13.10
2018-11-05T15:58:52.603Z,13.00
2018-11-05T16:01:20.152Z,13.10
2018-11-05T16:03:47.985Z,12.90
2018-11-05T16:06:15.545Z,12.90
2018-11-05T16:08:44.009Z,13.00
2018-11-05T16:11:11.562Z,12.90
2018-11-05T16:13:39.055Z,12.90
2018-11-05T16:16:06.608Z,12.80
2018-11-05T16:18:34.155Z,12.80
2018-11-05T16:21:01.628Z,12.80
2018-11-05T16:23:29.055Z,12.70
2018-11-05T16:25:56.706Z,12.70
2018-11-05T16:28:24.143Z,12.60
2018-11-05T16:30:51.615Z,12.50
2018-11-05T16:33:19.152Z,12.70
2018-11-05T16:35:46.652Z,12.60
2018-11-05T16:38:14.183Z,12.60
2018-11-05T16:40:41.679Z,12.60
2018-11-05T16:43:09.163Z,12.50
2018-11-05T16:45:37.138Z,12.50
2018-11-05T16:48:05.003Z,12.40
2018-11-05T16:50:32.503Z,12.50
2018-11-05T16:52:59.961Z,12.50
2018-11-05T16:55:27.407Z,12.40
2018-11-05T16:57:54.974Z,12.40
2018-11-05T17:00:22.468Z,12.40
2018-11-05T17:02:50.274Z,12.40
2018-11-05T17:05:17.461Z,12.40
2018-11-05T17:07:45.682Z,12.40
2018-11-05T17:10:14.181Z,12.30
2018-11-05T17:12:42.296Z,12.20
2018-11-05T17:15:11.493Z,12.30
2018-11-05T17:17:39.453Z,12.20
2018-11-05T17:20:11.011Z,12.30
2018-11-05T17:22:39.273Z,12.20
2018-11-05T17:25:07.110Z,12.20
2018-11-05T17:27:34.607Z,12.20
2018-11-05T17:30:02.164Z,12.20
2018-11-05T17:32:30.771Z,12.10
2018-11-05T17:34:58.248Z,12.00
2018-11-05T17:37:25.699Z,12.10
2018-11-05T17:39:53.168Z,12.10
2018-11-05T17:42:20.690Z,12.00
2018-11-05T17:44:48.187Z,11.90
2018-11-05T17:47:15.664Z,11.90
2018-11-05T17:49:43.196Z,11.90
2018-11-05T17:52:10.789Z,11.80
2018-11-05T17:54:38.284Z,11.80
2018-11-05T17:57:05.870Z,11.80
2018-11-05T17:59:33.280Z,11.70
2018-11-05T18:02:00.797Z,11.60
2018-11-05T18:04:28.430Z,11.60
2018-11-05T18:06:55.881Z,11.60
2018-11-05T18:09:23.550Z,11.70
2018-11-05T18:11:51.059Z,11.50
2018-11-05T18:14:18.592Z,11.50
2018-11-05T18:16:46.031Z,11.50
2018-11-05T18:19:14.080Z,11.40
2018-11-05T18:21:41.608Z,11.40
2018-11-05T18:24:10.309Z,11.30
2018-11-05T18:26:37.767Z,11.40
2018-11-05T18:29:15.648Z,11.30
2018-11-05T18:31:43.148Z,11.40
2018-11-05T18:34:15.820Z,11.20
2018-11-05T18:36:43.343Z,11.20
2018-11-05T18:39:10.933Z,11.20
2018-11-05T18:41:38.573Z,11.30
2018-11-05T18:44:06.141Z,11.20
2018-11-05T18:46:33.958Z,11.00
2018-11-05T18:49:01.516Z,11.10
2018-11-05T18:51:29.018Z,10.90
2018-11-05T18:53:56.585Z,11.00
2018-11-05T18:56:24.054Z,10.90
2018-11-05T18:58:51.540Z,11.00
2018-11-05T19:01:19.057Z,10.90
2018-11-05T19:03:46.689Z,10.90
2018-11-05T19:06:14.118Z,10.90
2018-11-05T19:08:41.706Z,10.90
2018-11-05T19:11:09.263Z,10.90
2018-11-05T19:13:36.760Z,10.80
2018-11-05T19:16:04.506Z,10.80
2018-11-05T19:18:32.009Z,10.70
2018-11-05T19:20:59.512Z,10.70
2018-11-05T19:23:27.154Z,10.70
2018-11-05T19:25:54.548Z,10.70
2018-11-05T19:28:22.090Z,10.70
2018-11-05T19:30:49.616Z,10.70
2018-11-05T19:33:17.149Z,10.60
2018-11-05T19:35:44.653Z,10.60
2018-11-05T19:38:13.981Z,10.50
2018-11-05T19:40:41.467Z,10.50
2018-11-05T19:43:09.042Z,10.60
2018-11-05T19:45:36.546Z,10.60
2018-11-05T19:48:04.063Z,10.50
2018-11-05T19:50:31.529Z,10.50
2018-11-05T19:52:59.035Z,10.50
2018-11-05T19:55:27.342Z,10.50
2018-11-05T19:57:55.066Z,10.50
2018-11-05T20:00:24.803Z,10.40
2018-11-05T20:02:52.751Z,10.40
2018-11-05T20:05:20.382Z,10.30
2018-11-05T20:07:48.653Z,10.40
2018-11-05T20:10:16.160Z,10.30
2018-11-05T20:12:44.417Z,10.30
2018-11-05T20:15:12.077Z,10.20
2018-11-05T20:17:40.561Z,10.30
2018-11-05T20:20:09.850Z,10.10
2018-11-05T20:22:37.466Z,10.20
2018-11-05T20:25:05.951Z,10.10
2018-11-05T20:27:33.519Z,10.10
2018-11-05T20:30:01.180Z,9.90
2018-11-05T20:32:29.245Z,10.00
2018-11-05T20:34:56.229Z,10.00
2018-11-05T20:37:23.743Z,10.00
2018-11-05T20:39:51.316Z,10.00
2018-11-05T20:42:19.024Z,9.90
2018-11-05T20:44:46.511Z,9.90
2018-11-05T20:47:13.996Z,10.00
2018-11-05T20:49:41.476Z,9.80
2018-11-05T20:52:09.000Z,9.90
2018-11-05T20:54:36.980Z,9.90
2018-11-05T20:57:05.114Z,9.70
2018-11-05T20:59:32.600Z,9.70
2018-11-05T21:02:00.111Z,9.60
2018-11-05T21:04:27.598Z,9.70
2018-11-05T21:06:55.107Z,9.70
2018-11-05T21:09:22.551Z,9.60
2018-11-05T21:11:50.002Z,9.60
2018-11-05T21:14:17.531Z,9.60
2018-11-05T21:16:45.020Z,9.60
2018-11-05T21:19:12.569Z,9.70
2018-11-05T21:21:40.304Z,9.70
2018-11-05T21:24:07.711Z,9.60
2018-11-05T21:26:35.263Z,9.60
2018-11-05T21:29:02.752Z,9.60
2018-11-05T21:31:30.264Z,9.60
2018-11-05T21:36:26.152Z,9.50
2018-11-05T21:38:53.809Z,9.60
2018-11-05T21:41:21.356Z,9.50
2018-11-05T21:43:49.030Z,9.50
2018-11-05T21:46:16.616Z,9.50
2018-11-05T21:48:44.123Z,9.40
2018-11-05T21:51:11.605Z,9.30
2018-11-05T21:53:39.431Z,9.40
2018-11-05T21:56:06.972Z,9.30
2018-11-05T21:58:35.366Z,9.30
2018-11-05T22:01:02.863Z,9.30
2018-11-05T22:03:30.327Z,9.30
2018-11-05T22:05:57.839Z,9.20
2018-11-05T22:08:25.345Z,9.10
2018-11-05T22:10:53.736Z,9.30
2018-11-05T22:13:21.687Z,9.30
2018-11-05T22:15:49.165Z,9.10
2018-11-05T22:18:17.398Z,9.10
2018-11-05T22:20:45.791Z,9.10
2018-11-05T22:23:14.511Z,9.10
2018-11-05T22:25:42.083Z,9.10
2018-11-05T22:28:09.674Z,9.10
2018-11-05T22:30:37.153Z,9.10
2018-11-05T22:33:06.288Z,9.10
2018-11-05T22:35:34.126Z,9.10
2018-11-05T22:38:01.963Z,9.20
2018-11-05T22:40:29.507Z,9.10
2018-11-05T22:42:57.125Z,9.10
2018-11-05T22:45:24.642Z,9.00
2018-11-05T22:47:52.495Z,9.10
2018-11-05T22:50:20.128Z,9.00
2018-11-05T22:52:47.658Z,9.00
2018-11-05T22:55:15.156Z,9.00
2018-11-05T22:57:42.623Z,9.00
2018-11-05T23:00:20.304Z,8.90
2018-11-05T23:02:55.584Z,8.90
2018-11-05T23:05:23.437Z,8.90
2018-11-05T23:07:52.268Z,9.00
2018-11-05T23:10:20.513Z,9.00
2018-11-05T23:12:48.015Z,8.90
2018-11-05T23:15:16.084Z,8.90
2018-11-05T23:17:43.602Z,8.90
2018-11-05T23:20:11.187Z,8.80
2018-11-05T23:22:40.054Z,8.90
2018-11-05T23:25:07.596Z,8.90
2018-11-05T23:27:35.288Z,8.80
2018-11-05T23:30:03.262Z,8.80
2018-11-05T23:32:30.824Z,8.80
2018-11-05T23:34:58.376Z,8.80
2018-11-05T23:37:25.892Z,8.90
2018-11-05T23:39:53.552Z,8.90
2018-11-05T23:42:21.024Z,8.80
2018-11-05T23:44:48.503Z,8.90
2018-11-05T23:47:16.085Z,8.90
2018-11-05T23:49:43.540Z,8.90
2018-11-05T23:52:11.335Z,9.00
2018-11-05T23:54:38.897Z,8.90
2018-11-05T23:57:06.403Z,9.00
2018-11-05T23:59:34.163Z,8.90
